Nearby METAR Reports

 

KCPC - Whiteville, North Carolina, USA
Distance from station: NNE 17mi, 28km
Updated: 10/16/2018 9:35pm
Overcast
Overcast
 Wind from calm
Wind: Calm
Temperature: 75°F , 24°C
Dew Point: 75°F , 24°C
Humidity: 100%
Barometer: 30.09 inHg , 1019 hPa
Clouds: Overcast
Visibility: 10 miles , 16 km
Cloud details: Overcast 6000 ft
2018/10/17 01:35 KCPC 170135Z AUTO 00000KT 10SM OVC060 24/24 A3009 RMK AO2 T02430236
KCRE - North Myrtle Bea, South Carolina, USA
Distance from station: SSE 19mi, 31km
Updated: 10/16/2018 9:47pm
Light thunderstorm, Rain, Mist, Overcast
Light thunderstorm, Rain, Mist, Overcast
 Wind from calm
Wind: Calm
Temperature: 75°F , 24°C
Dew Point: 75°F , 24°C
Humidity: 100%
Barometer: 30.10 inHg , 1019.3 hPa
Summary: Light thunderstorm, Rain, Mist
Clouds: Overcast
Visibility: 5 miles , 8 km
Cloud details: Partly cloudy 900 ft
Mostly cloudy 1500 ft
Overcast 4200 ft
2018/10/17 01:47 KCRE 170147Z AUTO 00000KT 5SM -TSRA BR SCT009 BKN015 OVC042 24/24 A3010 RMK AO1 LTG DSNT S AND SW RAB21 TSB27 P0052
 
KHYW - Conway-Horry Cty, South Carolina, USA
Distance from station: SW 22mi, 35km
Updated: 10/16/2018 9:35pm
Mostly cloudy
Mostly cloudy
 Wind from S
Wind: S 3 mph , 6 km/h
Temperature: 73°F , 23°C
Dew Point: 73°F , 23°C
Humidity: 100%
Barometer: 30.09 inHg , 1019 hPa
Clouds: Mostly cloudy
Visibility: 7 miles , 11 km
Cloud details: Partly cloudy 3700 ft
Partly cloudy 4400 ft
Mostly cloudy 6000 ft
2018/10/17 01:35 KHYW 170135Z AUTO 17003KT 7SM SCT037 SCT044 BKN060 23/23 A3009 RMK AO2 LTG DSNT SE P0002
KMAO - Marion, South Carolina, USA
Distance from station: WNW 28mi, 45km
Updated: 10/16/2018 9:55pm
Overcast
Overcast
 Wind from calm
Wind: Calm
Temperature: 73°F , 23°C
Dew Point: 72°F , 22°C
Humidity: 94%
Barometer: 30.08 inHg , 1018.6 hPa
Clouds: Overcast
Visibility: 10 miles , 16 km
Cloud details: Mostly cloudy 9000 ft
Overcast 11000 ft
2018/10/17 01:55 KMAO 170155Z AUTO 00000KT 10SM BKN090 OVC110 23/22 A3008 RMK AO2
 
KMYR - Myrtle Beach, South Carolina, USA
Distance from station: S 28mi, 45km
Updated: 10/16/2018 9:37pm
Light thunderstorm, Rain, Mist, Overcast
Light thunderstorm, Rain, Mist, Overcast
 Wind from S
Wind: S 9 mph , 15 km/h
Temperature: 75°F , 24°C
Dew Point: 73°F , 23°C
Humidity: 94%
Barometer: 30.11 inHg , 1019.6 hPa
Summary: Light thunderstorm, Rain, Mist
Clouds: Overcast
Visibility: 5 miles , 8 km
Cloud details: Few Clouds 1200 ft
Mostly cloudy 3400 ft
Overcast 6500 ft
2018/10/17 01:37 KMYR 170137Z 17008KT 5SM -TSRA BR FEW012 BKN034 OVC065 24/23 A3011 RMK AO2 LTG DSNT NE TSB01 P0072
KLBT - Lumberton, North Carolina, USA
Distance from station: NNW 39mi, 62km
Updated: 10/16/2018 8:54pm
Mostly cloudy
Mostly cloudy
 Wind from calm
Wind: Calm
Temperature: 73°F , 23°C
Dew Point: 72°F , 22°C
Humidity: 94%
Barometer: 30.08 inHg , 1018.6 hPa
Clouds: Mostly cloudy
Visibility: 10 miles , 16 km
Cloud details: Few Clouds 6500 ft
Mostly cloudy 10000 ft
2018/10/17 00:54 KLBT 170054Z AUTO 00000KT 10SM FEW065 BKN100 23/22 A3008 RMK AO2 SLP183 T02330217
 
KSUT - Southport, North Carolina, USA
Distance from station: E 46mi, 74km
Updated: 10/16/2018 9:45pm
Mostly cloudy
Mostly cloudy
 Wind from SW
Wind: SW 5 mph , 7 km/h
Temperature: 79°F , 26°C
Dew Point: 75°F , 24°C
Humidity: 89%
Barometer: 30.09 inHg , 1019 hPa
Clouds: Mostly cloudy
Visibility: 10 miles , 16 km
Cloud details: Mostly cloudy 11000 ft
2018/10/17 01:45 KSUT 170145Z AUTO 22004KT 10SM BKN110 26/24 A3009 RMK AO2 T02560240
KFLO - Florence, South Carolina, USA
Distance from station: W 50mi, 81km
Updated: 10/16/2018 9:32pm
Light rain, Overcast
Light rain, Overcast
 Wind from WNW
Wind: WNW 5 mph , 7 km/h
Temperature: 77°F , 25°C
Dew Point: 75°F , 24°C
Humidity: 94%
Barometer: 30.09 inHg , 1019 hPa
Summary: Light rain
Clouds: Overcast
Visibility: 7 miles , 11 km
Cloud details: Few Clouds 5000 ft
Mostly cloudy 7000 ft
Overcast 9000 ft
2018/10/17 01:32 KFLO 170132Z 29004KT 7SM -RA FEW050 BKN070 OVC090 25/24 A3009 RMK AO2 RAB05 LTG ICCCCG OVHD ALQDNTS *LAST* P0008 T02500244